Orbital elements of FENGYUN 1C DEB
| Launched | 9 May 1999 |
| Flight ended | – |
| Launch site | Taiyuan Space Center, PRC |
| Owner | People's Republic of China |
| NORAD ID | 31428 |
| Date fetched |
Epoch osculation |
Inc. [°] |
Ecc. | RA asc node [hr] |
Arg Peri. [°] |
Mean anom [°] |
Mean motion [rev/day] |
Abs. mag |
| Date fetched |
Epoch osculation |
Inc. [°] |
Ecc. | RA asc node [hr] |
Arg Peri. [°] |
Mean anom [°] |
Mean motion [rev/day] |
Abs. mag |
| 2026 May 05 17:57 | 2026 May 04 17:28:55 | 99.0530 | 0.00644 | 7.3191 | 91.3727 | 87.2816 | 14.42897 | – |
| 2026 May 04 17:57 | 2026 Apr 29 10:53:41 | 99.0527 | 0.00642 | 6.9457 | 106.6250 | 87.2816 | 14.42897 | – |
| 2026 May 03 17:57 | 2026 Apr 29 10:53:41 | 99.0527 | 0.00642 | 6.9457 | 106.6250 | 87.2816 | 14.42897 | – |
| 2026 May 02 17:57 | 2026 Apr 29 10:53:41 | 99.0527 | 0.00642 | 6.9457 | 106.6250 | 87.2816 | 14.42897 | – |
| 2026 May 01 17:56 | 2026 Apr 29 10:53:41 | 99.0527 | 0.00642 | 6.9457 | 106.6250 | 87.2816 | 14.42897 | – |
| 2026 Apr 30 17:56 | 2026 Apr 29 10:53:41 | 99.0527 | 0.00642 | 6.9457 | 106.6250 | 87.2816 | 14.42897 | – |
| 2026 Apr 29 17:57 | 2026 Apr 24 11:04:23 | 99.0528 | 0.00640 | 6.5924 | 121.1384 | 87.2816 | 14.42897 | – |
| 2026 Apr 28 17:56 | 2026 Apr 24 11:04:23 | 99.0528 | 0.00640 | 6.5924 | 121.1384 | 87.2816 | 14.42897 | – |
| 2026 Apr 27 17:58 | 2026 Apr 24 11:04:23 | 99.0528 | 0.00640 | 6.5924 | 121.1384 | 87.2816 | 14.42897 | – |
| 2026 Apr 26 17:58 | 2026 Apr 24 11:04:23 | 99.0528 | 0.00640 | 6.5924 | 121.1384 | 87.2816 | 14.42897 | – |
| 2026 Apr 25 17:58 | 2026 Apr 24 11:04:23 | 99.0528 | 0.00640 | 6.5924 | 121.1384 | 87.2816 | 14.42897 | – |
| 2026 Apr 24 17:59 | 2026 Apr 24 11:04:23 | 99.0528 | 0.00640 | 6.5924 | 121.1384 | 87.2816 | 14.42897 | – |
| 2026 Apr 23 17:57 | 2026 Apr 18 04:37:14 | 99.0527 | 0.00636 | 6.1487 | 139.4627 | 87.2816 | 14.42897 | – |
| 2026 Apr 22 17:57 | 2026 Apr 18 04:37:14 | 99.0527 | 0.00636 | 6.1487 | 139.4627 | 87.2816 | 14.42897 | – |
| 2026 Apr 21 17:57 | 2026 Apr 18 04:37:14 | 99.0527 | 0.00636 | 6.1487 | 139.4627 | 87.2816 | 14.42897 | – |
| 2026 Apr 20 17:57 | 2026 Apr 18 04:37:14 | 99.0527 | 0.00636 | 6.1487 | 139.4627 | 87.2816 | 14.42897 | – |
| 2026 Apr 19 17:58 | 2026 Apr 18 04:37:14 | 99.0527 | 0.00636 | 6.1487 | 139.4627 | 87.2816 | 14.42897 | – |
| 2026 Apr 18 17:56 | 2026 Apr 11 10:08:59 | 99.0513 | 0.00632 | 5.6696 | 159.3656 | 87.2816 | 14.42897 | – |
| 2026 Apr 16 17:57 | 2026 Apr 11 10:08:59 | 99.0513 | 0.00632 | 5.6696 | 159.3656 | 87.2816 | 14.42897 | – |
| 2026 Apr 14 17:57 | 2026 Apr 11 10:08:59 | 99.0513 | 0.00632 | 5.6696 | 159.3656 | 87.2816 | 14.42897 | – |
| 2026 Apr 13 17:57 | 2026 Apr 11 10:08:59 | 99.0513 | 0.00632 | 5.6696 | 159.3656 | 87.2816 | 14.42897 | – |
| 2026 Apr 12 17:57 | 2026 Apr 07 22:21:00 | 99.0519 | 0.00629 | 5.4225 | 169.6941 | 87.2816 | 14.42897 | – |
| 2026 Apr 11 17:57 | 2026 Apr 07 22:21:00 | 99.0519 | 0.00629 | 5.4225 | 169.6941 | 87.2816 | 14.42897 | – |
| 2026 Apr 10 17:58 | 2026 Apr 07 22:21:00 | 99.0519 | 0.00629 | 5.4225 | 169.6941 | 87.2816 | 14.42897 | – |
| 2026 Apr 09 18:01 | 2026 Apr 07 22:21:00 | 99.0519 | 0.00629 | 5.4225 | 169.6941 | 87.2816 | 14.42897 | – |
| 2026 Apr 08 17:57 | 2026 Apr 07 22:21:00 | 99.0519 | 0.00629 | 5.4225 | 169.6941 | 87.2816 | 14.42897 | – |